Terminal Aerodrome Forecast
Issued by NWS Northern Indiana

Home | Current Version | Previous Version | Text Only | Print | Product List | Glossary On
Versions: 1 2 3 4 5 6 7 8 9 10 11 12 13 14 15
000
FTUS43 KIWX 210539
TAFFWA
TAF
KFWA 210539Z 2106/2206 26004KT P6SM SCT250
     FM210800 VRB03KT 5SM BR SCT025 BKN250
     FM211100 VRB03KT 5SM BR VCTS BKN060CB
     FM211500 08006KT P6SM SCT050 BKN200
     FM212000 14006KT P6SM SCT050 BKN120=

USA.gov is the U.S. government's official web portal to all federal, state and local government web resources and services.